Terminal Aerodrome Forecast
Issued by NWS Charleston, WV

Home | Current Version | Previous Version | Text Only | Print | Product List | Glossary On
Versions: 1 2 3 4 5 6 7 8 9 10 11 12 13 14 15 16 17 18 19 20 21
000
FTUS41 KRLX 031120
TAFPKB
TAF
KPKB 031120Z 0312/0412 20004KT P6SM BKN070
     FM031400 20007KT P6SM SCT050
     FM031600 23010G15KT P6SM SCT045
     FM031900 23010G16KT P6SM VCTS SCT040CB
     FM032300 24009KT P6SM VCTS BKN035CB
     FM040200 22006KT P6SM VCTS BKN030CB
     FM040600 VRB03KT P6SM SCT035=

USA.gov is the U.S. government's official web portal to all federal, state and local government web resources and services.